sensor_id;sensor_type;location;lat;lon;timestamp;pressure;altitude;pressure_sealevel;temperature;humidity
36834;BME280;48003;52.084;5.224;2023-04-21T00:00:12;101645.0;;;12.21;71.31
36834;BME280;48003;52.084;5.224;2023-04-21T00:01:48;101644.0;;;12.17;71.81
36834;BME280;48003;52.084;5.224;2023-04-21T00:03:25;101643.0;;;12.14;72.11
36834;BME280;48003;52.084;5.224;2023-04-21T00:06:37;101656.0;;;12.16;72.23
36834;BME280;48003;52.084;5.224;2023-04-21T00:08:14;101649.0;;;12.14;72.47
36834;BME280;48003;52.084;5.224;2023-04-21T00:09:50;101650.0;;;12.12;72.63
36834;BME280;48003;52.084;5.224;2023-04-21T00:11:27;101641.0;;;12.14;72.8
36834;BME280;48003;52.084;5.224;2023-04-21T00:14:39;101634.0;;;12.16;72.69
36834;BME280;48003;52.084;5.224;2023-04-21T00:16:15;101612.0;;;12.15;72.87
36834;BME280;48003;52.084;5.224;2023-04-21T00:17:51;101605.0;;;12.13;73.02
36834;BME280;48003;52.084;5.224;2023-04-21T00:21:04;101613.0;;;12.14;73.52
36834;BME280;48003;52.084;5.224;2023-04-21T00:22:39;101615.0;;;12.13;73.56
36834;BME280;48003;52.084;5.224;2023-04-21T00:24:16;101609.0;;;12.11;74.08
36834;BME280;48003;52.084;5.224;2023-04-21T00:27:28;101609.0;;;12.11;74.12
36834;BME280;48003;52.084;5.224;2023-04-21T00:29:04;101608.0;;;12.1;74.11
36834;BME280;48003;52.084;5.224;2023-04-21T00:30:40;101606.0;;;12.11;74.14
36834;BME280;48003;52.084;5.224;2023-04-21T00:33:52;101601.0;;;12.09;74.44
36834;BME280;48003;52.084;5.224;2023-04-21T00:35:28;101606.0;;;12.09;74.38
36834;BME280;48003;52.084;5.224;2023-04-21T00:37:05;101597.0;;;12.08;74.36
36834;BME280;48003;52.084;5.224;2023-04-21T00:38:41;101596.0;;;12.07;74.61
36834;BME280;48003;52.084;5.224;2023-04-21T00:41:53;101592.0;;;12.06;74.69
36834;BME280;48003;52.084;5.224;2023-04-21T00:43:29;101587.0;;;12.05;74.97
36834;BME280;48003;52.084;5.224;2023-04-21T00:45:06;101584.0;;;12.07;74.75
36834;BME280;48003;52.084;5.224;2023-04-21T00:48:19;101587.0;;;12.07;74.59
36834;BME280;48003;52.084;5.224;2023-04-21T00:49:56;101588.0;;;12.05;74.78
36834;BME280;48003;52.084;5.224;2023-04-21T00:51:33;101586.0;;;12.06;74.66
36834;BME280;48003;52.084;5.224;2023-04-21T00:54:49;101589.0;;;12.04;74.66
36834;BME280;48003;52.084;5.224;2023-04-21T00:56:27;101580.0;;;11.99;74.91
36834;BME280;48003;52.084;5.224;2023-04-21T00:58:05;101569.0;;;12.0;75.19
36834;BME280;48003;52.084;5.224;2023-04-21T00:59:41;101569.0;;;11.97;75.22
36834;BME280;48003;52.084;5.224;2023-04-21T01:02:54;101573.0;;;11.96;75.44
36834;BME280;48003;52.084;5.224;2023-04-21T01:04:31;101581.0;;;11.94;75.67
36834;BME280;48003;52.084;5.224;2023-04-21T01:06:08;101581.0;;;11.95;75.7
36834;BME280;48003;52.084;5.224;2023-04-21T01:09:21;101577.0;;;11.91;75.89
36834;BME280;48003;52.084;5.224;2023-04-21T01:10:57;101567.0;;;11.87;75.91
36834;BME280;48003;52.084;5.224;2023-04-21T01:12:41;101567.0;;;11.9;75.73
36834;BME280;48003;52.084;5.224;2023-04-21T01:14:17;101569.0;;;11.92;75.99
36834;BME280;48003;52.084;5.224;2023-04-21T01:17:29;101570.0;;;11.93;75.97
36834;BME280;48003;52.084;5.224;2023-04-21T01:19:05;101570.0;;;11.9;76.25
36834;BME280;48003;52.084;5.224;2023-04-21T01:20:41;101567.0;;;11.93;76.06
36834;BME280;48003;52.084;5.224;2023-04-21T01:23:53;101566.0;;;11.95;76.11
36834;BME280;48003;52.084;5.224;2023-04-21T01:25:30;101562.0;;;11.91;76.3
36834;BME280;48003;52.084;5.224;2023-04-21T01:27:08;101558.0;;;11.9;76.66
36834;BME280;48003;52.084;5.224;2023-04-21T01:30:21;101559.0;;;11.93;76.41
36834;BME280;48003;52.084;5.224;2023-04-21T01:31:57;101555.0;;;11.93;76.47
36834;BME280;48003;52.084;5.224;2023-04-21T01:33:33;101556.0;;;11.9;76.52
36834;BME280;48003;52.084;5.224;2023-04-21T01:35:09;101553.0;;;11.86;76.81
36834;BME280;48003;52.084;5.224;2023-04-21T01:38:22;101555.0;;;11.86;76.8
36834;BME280;48003;52.084;5.224;2023-04-21T01:40:01;101551.0;;;11.82;77.27
36834;BME280;48003;52.084;5.224;2023-04-21T01:41:39;101552.0;;;11.82;77.53
36834;BME280;48003;52.084;5.224;2023-04-21T01:44:56;101553.0;;;11.82;77.69
36834;BME280;48003;52.084;5.224;2023-04-21T01:46:32;101541.0;;;11.81;77.66
36834;BME280;48003;52.084;5.224;2023-04-21T01:48:08;101540.0;;;11.79;77.69
36834;BME280;48003;52.084;5.224;2023-04-21T01:49:44;101532.0;;;11.8;77.74
36834;BME280;48003;52.084;5.224;2023-04-21T01:52:57;101530.0;;;11.8;77.83
36834;BME280;48003;52.084;5.224;2023-04-21T01:54:34;101530.0;;;11.8;77.94
36834;BME280;48003;52.084;5.224;2023-04-21T01:56:12;101530.0;;;11.81;77.97
36834;BME280;48003;52.084;5.224;2023-04-21T01:59:25;101530.0;;;11.8;77.97
36834;BME280;48003;52.084;5.224;2023-04-21T02:01:01;101522.0;;;11.79;78.02
36834;BME280;48003;52.084;5.224;2023-04-21T02:02:38;101523.0;;;11.78;78.28
36834;BME280;48003;52.084;5.224;2023-04-21T02:05:51;101526.0;;;11.78;78.34
36834;BME280;48003;52.084;5.224;2023-04-21T02:07:27;101527.0;;;11.75;78.49
36834;BME280;48003;52.084;5.224;2023-04-21T02:09:03;101533.0;;;11.75;78.55
36834;BME280;48003;52.084;5.224;2023-04-21T02:10:39;101531.0;;;11.73;78.75
36834;BME280;48003;52.084;5.224;2023-04-21T02:13:52;101527.0;;;11.72;78.78
36834;BME280;48003;52.084;5.224;2023-04-21T02:15:29;101532.0;;;11.73;78.98
36834;BME280;48003;52.084;5.224;2023-04-21T02:17:05;101530.0;;;11.74;78.94
36834;BME280;48003;52.084;5.224;2023-04-21T02:20:17;101531.0;;;11.74;78.86
36834;BME280;48003;52.084;5.224;2023-04-21T02:21:53;101535.0;;;11.73;78.91
36834;BME280;48003;52.084;5.224;2023-04-21T02:23:29;101537.0;;;11.73;79.03
36834;BME280;48003;52.084;5.224;2023-04-21T02:26:42;101528.0;;;11.75;79.11
36834;BME280;48003;52.084;5.224;2023-04-21T02:28:18;101525.0;;;11.75;79.25
36834;BME280;48003;52.084;5.224;2023-04-21T02:29:54;101530.0;;;11.76;78.94
36834;BME280;48003;52.084;5.224;2023-04-21T02:33:06;101530.0;;;11.75;79.09
36834;BME280;48003;52.084;5.224;2023-04-21T02:34:42;101524.0;;;11.77;79.23
36834;BME280;48003;52.084;5.224;2023-04-21T02:36:18;101521.0;;;11.77;79.47
36834;BME280;48003;52.084;5.224;2023-04-21T02:37:54;101516.0;;;11.75;79.41
36834;BME280;48003;52.084;5.224;2023-04-21T02:41:07;101517.0;;;11.76;79.53
36834;BME280;48003;52.084;5.224;2023-04-21T02:42:43;101512.0;;;11.74;79.63
36834;BME280;48003;52.084;5.224;2023-04-21T02:44:19;101513.0;;;11.74;79.7
36834;BME280;48003;52.084;5.224;2023-04-21T02:47:32;101503.0;;;11.72;79.97
36834;BME280;48003;52.084;5.224;2023-04-21T02:49:09;101512.0;;;11.74;79.94
36834;BME280;48003;52.084;5.224;2023-04-21T02:50:45;101518.0;;;11.78;79.94
36834;BME280;48003;52.084;5.224;2023-04-21T02:53:58;101510.0;;;11.76;79.81
36834;BME280;48003;52.084;5.224;2023-04-21T02:55:34;101505.0;;;11.74;79.69
36834;BME280;48003;52.084;5.224;2023-04-21T02:57:10;101499.0;;;11.71;79.86
36834;BME280;48003;52.084;5.224;2023-04-21T02:58:46;101509.0;;;11.71;79.98
36834;BME280;48003;52.084;5.224;2023-04-21T03:01:58;101507.0;;;11.69;80.23
36834;BME280;48003;52.084;5.224;2023-04-21T03:03:34;101502.0;;;11.68;80.17
36834;BME280;48003;52.084;5.224;2023-04-21T03:05:11;101506.0;;;11.69;80.11
36834;BME280;48003;52.084;5.224;2023-04-21T03:08:23;101501.0;;;11.7;80.17
36834;BME280;48003;52.084;5.224;2023-04-21T03:10:00;101495.0;;;11.7;80.27
36834;BME280;48003;52.084;5.224;2023-04-21T03:11:36;101503.0;;;11.71;80.24
36834;BME280;48003;52.084;5.224;2023-04-21T03:14:49;101508.0;;;11.69;80.41
36834;BME280;48003;52.084;5.224;2023-04-21T03:16:25;101507.0;;;11.68;80.66
36834;BME280;48003;52.084;5.224;2023-04-21T03:18:01;101512.0;;;11.69;80.37
36834;BME280;48003;52.084;5.224;2023-04-21T03:21:13;101505.0;;;11.69;80.34
36834;BME280;48003;52.084;5.224;2023-04-21T03:22:52;101498.0;;;11.67;80.62
36834;BME280;48003;52.084;5.224;2023-04-21T03:24:28;101512.0;;;11.65;80.67
36834;BME280;48003;52.084;5.224;2023-04-21T03:26:06;101506.0;;;11.73;80.61
36834;BME280;48003;52.084;5.224;2023-04-21T03:29:19;101491.0;;;11.72;80.58
36834;BME280;48003;52.084;5.224;2023-04-21T03:30:55;101503.0;;;11.79;80.31
36834;BME280;48003;52.084;5.224;2023-04-21T03:32:31;101493.0;;;11.73;80.42
36834;BME280;48003;52.084;5.224;2023-04-21T03:35:43;101492.0;;;11.73;80.47
36834;BME280;48003;52.084;5.224;2023-04-21T03:37:19;101492.0;;;11.69;80.66
36834;BME280;48003;52.084;5.224;2023-04-21T03:38:55;101485.0;;;11.69;80.77
36834;BME280;48003;52.084;5.224;2023-04-21T03:42:08;101487.0;;;11.66;80.99
36834;BME280;48003;52.084;5.224;2023-04-21T03:43:43;101482.0;;;11.68;80.94
36834;BME280;48003;52.084;5.224;2023-04-21T03:45:19;101476.0;;;11.69;80.89
36834;BME280;48003;52.084;5.224;2023-04-21T03:46:55;101476.0;;;11.71;80.83
36834;BME280;48003;52.084;5.224;2023-04-21T03:50:08;101469.0;;;11.7;80.72
36834;BME280;48003;52.084;5.224;2023-04-21T03:51:43;101471.0;;;11.69;80.77
36834;BME280;48003;52.084;5.224;2023-04-21T03:53:20;101470.0;;;11.68;80.91
36834;BME280;48003;52.084;5.224;2023-04-21T03:56:32;101469.0;;;11.67;81.11
36834;BME280;48003;52.084;5.224;2023-04-21T03:58:08;101461.0;;;11.69;81.14
36834;BME280;48003;52.084;5.224;2023-04-21T03:59:44;101465.0;;;11.68;81.03
36834;BME280;48003;52.084;5.224;2023-04-21T04:02:56;101464.0;;;11.71;80.94
36834;BME280;48003;52.084;5.224;2023-04-21T04:04:33;101469.0;;;11.69;81.14
36834;BME280;48003;52.084;5.224;2023-04-21T04:06:09;101465.0;;;11.7;81.06
36834;BME280;48003;52.084;5.224;2023-04-21T04:09:20;101468.0;;;11.71;81.16
36834;BME280;48003;52.084;5.224;2023-04-21T04:10:56;101461.0;;;11.71;80.99
36834;BME280;48003;52.084;5.224;2023-04-21T04:12:32;101460.0;;;11.69;81.06
36834;BME280;48003;52.084;5.224;2023-04-21T04:14:08;101455.0;;;11.69;81.13
36834;BME280;48003;52.084;5.224;2023-04-21T04:17:21;101462.0;;;11.75;80.98
36834;BME280;48003;52.084;5.224;2023-04-21T04:18:57;101452.0;;;11.74;80.98
36834;BME280;48003;52.084;5.224;2023-04-21T04:20:33;101447.0;;;11.72;81.09
36834;BME280;48003;52.084;5.224;2023-04-21T04:23:45;101462.0;;;11.76;81.06
36834;BME280;48003;52.084;5.224;2023-04-21T04:25:22;101456.0;;;11.8;80.87
36834;BME280;48003;52.084;5.224;2023-04-21T04:26:58;101453.0;;;11.75;81.11
36834;BME280;48003;52.084;5.224;2023-04-21T04:30:11;101451.0;;;11.73;81.05
36834;BME280;48003;52.084;5.224;2023-04-21T04:31:48;101455.0;;;11.7;81.05
36834;BME280;48003;52.084;5.224;2023-04-21T04:33:24;101448.0;;;11.73;81.11
36834;BME280;48003;52.084;5.224;2023-04-21T04:35:00;101452.0;;;11.71;81.11
36834;BME280;48003;52.084;5.224;2023-04-21T04:38:12;101459.0;;;11.72;81.3
36834;BME280;48003;52.084;5.224;2023-04-21T04:39:51;101459.0;;;11.69;81.33
36834;BME280;48003;52.084;5.224;2023-04-21T04:41:28;101459.0;;;11.66;81.58
36834;BME280;48003;52.084;5.224;2023-04-21T04:44:41;101465.0;;;11.69;81.53
36834;BME280;48003;52.084;5.224;2023-04-21T04:46:17;101462.0;;;11.69;81.53
36834;BME280;48003;52.084;5.224;2023-04-21T04:47:53;101458.0;;;11.71;81.38
36834;BME280;48003;52.084;5.224;2023-04-21T04:51:05;101458.0;;;11.72;81.37
36834;BME280;48003;52.084;5.224;2023-04-21T04:52:42;101462.0;;;11.68;81.41
36834;BME280;48003;52.084;5.224;2023-04-21T04:54:18;101462.0;;;11.66;81.64
36834;BME280;48003;52.084;5.224;2023-04-21T04:57:30;101459.0;;;11.68;81.61
36834;BME280;48003;52.084;5.224;2023-04-21T04:59:06;101462.0;;;11.66;81.77
36834;BME280;48003;52.084;5.224;2023-04-21T05:00:42;101462.0;;;11.68;81.7
36834;BME280;48003;52.084;5.224;2023-04-21T05:02:18;101468.0;;;11.71;81.72
36834;BME280;48003;52.084;5.224;2023-04-21T05:05:32;101464.0;;;11.68;81.7
36834;BME280;48003;52.084;5.224;2023-04-21T05:07:08;101460.0;;;11.7;81.77
36834;BME280;48003;52.084;5.224;2023-04-21T05:08:44;101456.0;;;11.7;81.8
36834;BME280;48003;52.084;5.224;2023-04-21T05:11:56;101460.0;;;11.68;81.92
36834;BME280;48003;52.084;5.224;2023-04-21T05:13:32;101469.0;;;11.7;81.84
36834;BME280;48003;52.084;5.224;2023-04-21T05:15:08;101469.0;;;11.72;81.77
36834;BME280;48003;52.084;5.224;2023-04-21T05:18:21;101475.0;;;11.72;81.59
36834;BME280;48003;52.084;5.224;2023-04-21T05:19:58;101469.0;;;11.69;81.8
36834;BME280;48003;52.084;5.224;2023-04-21T05:21:34;101469.0;;;11.68;82.02
36834;BME280;48003;52.084;5.224;2023-04-21T05:23:10;101472.0;;;11.68;82.03
36834;BME280;48003;52.084;5.224;2023-04-21T05:26:23;101472.0;;;11.69;81.96
36834;BME280;48003;52.084;5.224;2023-04-21T05:27:59;101471.0;;;11.67;82.15
36834;BME280;48003;52.084;5.224;2023-04-21T05:29:35;101476.0;;;11.71;82.08
36834;BME280;48003;52.084;5.224;2023-04-21T05:32:47;101483.0;;;11.7;82.08
36834;BME280;48003;52.084;5.224;2023-04-21T05:34:23;101478.0;;;11.75;81.84
36834;BME280;48003;52.084;5.224;2023-04-21T05:35:59;101482.0;;;11.74;82.04
36834;BME280;48003;52.084;5.224;2023-04-21T05:39:11;101485.0;;;11.83;81.86
36834;BME280;48003;52.084;5.224;2023-04-21T05:40:52;101481.0;;;11.83;81.77
36834;BME280;48003;52.084;5.224;2023-04-21T05:42:29;101478.0;;;11.84;81.81
36834;BME280;48003;52.084;5.224;2023-04-21T05:44:05;101480.0;;;11.84;81.83
36834;BME280;48003;52.084;5.224;2023-04-21T05:47:17;101480.0;;;11.84;81.84
36834;BME280;48003;52.084;5.224;2023-04-21T05:48:53;101485.0;;;11.85;82.12
36834;BME280;48003;52.084;5.224;2023-04-21T05:50:29;101490.0;;;11.83;82.16
36834;BME280;48003;52.084;5.224;2023-04-21T05:53:45;101494.0;;;11.83;82.34
36834;BME280;48003;52.084;5.224;2023-04-21T05:55:21;101500.0;;;11.87;82.4
36834;BME280;48003;52.084;5.224;2023-04-21T05:56:57;101503.0;;;11.91;82.34
36834;BME280;48003;52.084;5.224;2023-04-21T06:00:10;101505.0;;;11.91;82.43
36834;BME280;48003;52.084;5.224;2023-04-21T06:01:46;101505.0;;;11.9;82.73
36834;BME280;48003;52.084;5.224;2023-04-21T06:03:22;101502.0;;;11.93;82.74
36834;BME280;48003;52.084;5.224;2023-04-21T06:04:58;101506.0;;;12.0;82.79
36834;BME280;48003;52.084;5.224;2023-04-21T06:08:11;101508.0;;;12.01;82.54
36834;BME280;48003;52.084;5.224;2023-04-21T06:09:49;101503.0;;;12.0;82.69
36834;BME280;48003;52.084;5.224;2023-04-21T06:11:25;101500.0;;;12.02;82.72
36834;BME280;48003;52.084;5.224;2023-04-21T06:14:37;101503.0;;;12.03;82.82
36834;BME280;48003;52.084;5.224;2023-04-21T06:16:13;101501.0;;;12.04;82.8
36834;BME280;48003;52.084;5.224;2023-04-21T06:17:51;101493.0;;;12.06;82.69
36834;BME280;48003;52.084;5.224;2023-04-21T06:21:04;101489.0;;;12.08;82.74
36834;BME280;48003;52.084;5.224;2023-04-21T06:22:40;101486.0;;;12.09;82.83
36834;BME280;48003;52.084;5.224;2023-04-21T06:24:16;101484.0;;;12.13;82.69
36834;BME280;48003;52.084;5.224;2023-04-21T06:26:00;101486.0;;;12.13;82.79
36834;BME280;48003;52.084;5.224;2023-04-21T06:29:14;101490.0;;;12.2;82.82
36834;BME280;48003;52.084;5.224;2023-04-21T06:30:50;101492.0;;;12.21;82.8
36834;BME280;48003;52.084;5.224;2023-04-21T06:32:27;101496.0;;;12.28;82.75
36834;BME280;48003;52.084;5.224;2023-04-21T06:35:39;101492.0;;;12.2;82.7
36834;BME280;48003;52.084;5.224;2023-04-21T06:37:15;101491.0;;;12.36;82.55
36834;BME280;48003;52.084;5.224;2023-04-21T06:38:51;101487.0;;;12.42;82.35
36834;BME280;48003;52.084;5.224;2023-04-21T06:42:04;101486.0;;;12.39;82.67
36834;BME280;48003;52.084;5.224;2023-04-21T06:43:40;101490.0;;;12.43;82.55
36834;BME280;48003;52.084;5.224;2023-04-21T06:45:16;101485.0;;;12.43;82.51
36834;BME280;48003;52.084;5.224;2023-04-21T06:46:53;101490.0;;;12.47;82.49
36834;BME280;48003;52.084;5.224;2023-04-21T06:50:06;101488.0;;;12.47;82.37
36834;BME280;48003;52.084;5.224;2023-04-21T06:51:42;101485.0;;;12.47;82.47
36834;BME280;48003;52.084;5.224;2023-04-21T06:53:18;101486.0;;;12.46;82.64
36834;BME280;48003;52.084;5.224;2023-04-21T06:56:31;101486.0;;;12.46;82.54
36834;BME280;48003;52.084;5.224;2023-04-21T06:58:06;101485.0;;;12.44;82.96
36834;BME280;48003;52.084;5.224;2023-04-21T06:59:43;101487.0;;;12.48;83.12
36834;BME280;48003;52.084;5.224;2023-04-21T07:02:55;101489.0;;;12.54;83.51
36834;BME280;48003;52.084;5.224;2023-04-21T07:04:31;101482.0;;;12.63;83.43
36834;BME280;48003;52.084;5.224;2023-04-21T07:07:43;101480.0;;;12.79;83.54
36834;BME280;48003;52.084;5.224;2023-04-21T07:10:55;101475.0;;;12.79;83.51
36834;BME280;48003;52.084;5.224;2023-04-21T07:12:32;101480.0;;;12.84;83.14
36834;BME280;48003;52.084;5.224;2023-04-21T07:14:08;101482.0;;;12.87;82.84
36834;BME280;48003;52.084;5.224;2023-04-21T07:17:20;101477.0;;;12.85;82.73
36834;BME280;48003;52.084;5.224;2023-04-21T07:18:56;101481.0;;;12.88;83.03
36834;BME280;48003;52.084;5.224;2023-04-21T07:20:33;101483.0;;;12.89;82.79
36834;BME280;48003;52.084;5.224;2023-04-21T07:23:44;101485.0;;;12.9;82.51
36834;BME280;48003;52.084;5.224;2023-04-21T07:25:21;101477.0;;;12.98;82.47
36834;BME280;48003;52.084;5.224;2023-04-21T07:26:57;101471.0;;;13.04;82.2
36834;BME280;48003;52.084;5.224;2023-04-21T07:30:10;101470.0;;;13.09;82.45
36834;BME280;48003;52.084;5.224;2023-04-21T07:31:46;101473.0;;;13.16;82.28
36834;BME280;48003;52.084;5.224;2023-04-21T07:33:22;101481.0;;;13.08;82.46
36834;BME280;48003;52.084;5.224;2023-04-21T07:34:59;101483.0;;;13.28;81.31
36834;BME280;48003;52.084;5.224;2023-04-21T07:38:11;101480.0;;;13.29;81.25
36834;BME280;48003;52.084;5.224;2023-04-21T07:39:47;101478.0;;;13.36;81.05
36834;BME280;48003;52.084;5.224;2023-04-21T07:41:23;101481.0;;;13.36;81.49
36834;BME280;48003;52.084;5.224;2023-04-21T07:44:35;101481.0;;;13.38;80.77
36834;BME280;48003;52.084;5.224;2023-04-21T07:46:12;101483.0;;;13.53;80.58
36834;BME280;48003;52.084;5.224;2023-04-21T07:47:47;101480.0;;;13.51;80.81
36834;BME280;48003;52.084;5.224;2023-04-21T07:51:01;101481.0;;;13.65;80.33
36834;BME280;48003;52.084;5.224;2023-04-21T07:52:37;101487.0;;;13.68;79.67
36834;BME280;48003;52.084;5.224;2023-04-21T07:54:13;101486.0;;;13.59;79.75
36834;BME280;48003;52.084;5.224;2023-04-21T07:55:49;101488.0;;;13.63;80.06
36834;BME280;48003;52.084;5.224;2023-04-21T07:59:01;101486.0;;;13.93;78.92
36834;BME280;48003;52.084;5.224;2023-04-21T08:00:40;101483.0;;;13.97;78.61
36834;BME280;48003;52.084;5.224;2023-04-21T08:02:18;101485.0;;;14.01;79.24
36834;BME280;48003;52.084;5.224;2023-04-21T08:05:34;101484.0;;;14.1;79.97
36834;BME280;48003;52.084;5.224;2023-04-21T08:07:12;101485.0;;;14.03;78.48
36834;BME280;48003;52.084;5.224;2023-04-21T08:08:49;101484.0;;;14.1;78.22
36834;BME280;48003;52.084;5.224;2023-04-21T08:12:04;101476.0;;;14.03;77.33
36834;BME280;48003;52.084;5.224;2023-04-21T08:13:42;101478.0;;;13.95;77.38
36834;BME280;48003;52.084;5.224;2023-04-21T08:15:20;101472.0;;;13.77;77.24
36834;BME280;48003;52.084;5.224;2023-04-21T08:16:58;101469.0;;;14.15;76.69
36834;BME280;48003;52.084;5.224;2023-04-21T08:20:12;101471.0;;;14.32;76.44
36834;BME280;48003;52.084;5.224;2023-04-21T08:21:49;101474.0;;;14.41;76.91
36834;BME280;48003;52.084;5.224;2023-04-21T08:23:27;101473.0;;;14.5;76.7
36834;BME280;48003;52.084;5.224;2023-04-21T08:26:42;101471.0;;;14.5;77.41
36834;BME280;48003;52.084;5.224;2023-04-21T08:28:18;101473.0;;;14.47;76.45
36834;BME280;48003;52.084;5.224;2023-04-21T08:29:56;101471.0;;;14.52;75.66
36834;BME280;48003;52.084;5.224;2023-04-21T08:31:34;101470.0;;;14.54;76.08
36834;BME280;48003;52.084;5.224;2023-04-21T08:34:49;101469.0;;;14.6;76.36
36834;BME280;48003;52.084;5.224;2023-04-21T08:36:26;101473.0;;;14.64;76.49
36834;BME280;48003;52.084;5.224;2023-04-21T08:38:04;101480.0;;;14.21;75.98
36834;BME280;48003;52.084;5.224;2023-04-21T08:41:20;101471.0;;;14.67;74.62
36834;BME280;48003;52.084;5.224;2023-04-21T08:42:58;101475.0;;;14.78;75.03
36834;BME280;48003;52.084;5.224;2023-04-21T08:44:37;101467.0;;;14.87;74.62
36834;BME280;48003;52.084;5.224;2023-04-21T08:46:13;101466.0;;;14.66;73.31
36834;BME280;48003;52.084;5.224;2023-04-21T08:49:32;101462.0;;;14.72;73.55
36834;BME280;48003;52.084;5.224;2023-04-21T08:51:09;101467.0;;;14.92;73.56
36834;BME280;48003;52.084;5.224;2023-04-21T08:52:46;101468.0;;;14.76;72.58
36834;BME280;48003;52.084;5.224;2023-04-21T08:54:24;101466.0;;;15.02;72.16
36834;BME280;48003;52.084;5.224;2023-04-21T08:57:41;101467.0;;;14.77;72.63
36834;BME280;48003;52.084;5.224;2023-04-21T08:59:18;101459.0;;;15.01;71.66
36834;BME280;48003;52.084;5.224;2023-04-21T09:00:56;101456.0;;;15.0;71.49
36834;BME280;48003;52.084;5.224;2023-04-21T09:04:28;101446.0;;;14.99;72.09
36834;BME280;48003;52.084;5.224;2023-04-21T09:06:08;101446.0;;;15.18;70.83
36834;BME280;48003;52.084;5.224;2023-04-21T09:07:46;101448.0;;;15.35;70.24
36834;BME280;48003;52.084;5.224;2023-04-21T09:09:24;101449.0;;;15.39;70.16
36834;BME280;48003;52.084;5.224;2023-04-21T09:12:40;101455.0;;;15.43;70.7
36834;BME280;48003;52.084;5.224;2023-04-21T09:14:19;101452.0;;;15.36;70.74
36834;BME280;48003;52.084;5.224;2023-04-21T09:15:55;101461.0;;;15.53;69.17
36834;BME280;48003;52.084;5.224;2023-04-21T09:17:33;101456.0;;;15.47;69.78
36834;BME280;48003;52.084;5.224;2023-04-21T09:21:03;101451.0;;;15.66;67.88
36834;BME280;48003;52.084;5.224;2023-04-21T09:22:43;101449.0;;;15.65;67.72
36834;BME280;48003;52.084;5.224;2023-04-21T09:24:21;101448.0;;;15.67;67.2
36834;BME280;48003;52.084;5.224;2023-04-21T09:26:01;101446.0;;;15.62;66.92
36834;BME280;48003;52.084;5.224;2023-04-21T09:29:21;101447.0;;;15.6;67.8
36834;BME280;48003;52.084;5.224;2023-04-21T09:30:58;101447.0;;;15.62;67.83
36834;BME280;48003;52.084;5.224;2023-04-21T09:32:36;101448.0;;;15.73;67.97
36834;BME280;48003;52.084;5.224;2023-04-21T09:34:17;101444.0;;;15.7;66.78
36834;BME280;48003;52.084;5.224;2023-04-21T09:37:32;101448.0;;;15.75;67.2
36834;BME280;48003;52.084;5.224;2023-04-21T09:39:09;101452.0;;;15.84;68.58
36834;BME280;48003;52.084;5.224;2023-04-21T09:40:55;101449.0;;;15.9;67.38
36834;BME280;48003;52.084;5.224;2023-04-21T09:42:33;101447.0;;;15.72;68.08
36834;BME280;48003;52.084;5.224;2023-04-21T09:45:49;101443.0;;;15.92;67.23
36834;BME280;48003;52.084;5.224;2023-04-21T09:47:28;101448.0;;;15.93;66.62
36834;BME280;48003;52.084;5.224;2023-04-21T09:49:06;101443.0;;;16.06;65.53
36834;BME280;48003;52.084;5.224;2023-04-21T09:52:26;101446.0;;;15.9;66.53
36834;BME280;48003;52.084;5.224;2023-04-21T09:54:12;101440.0;;;16.18;66.0
36834;BME280;48003;52.084;5.224;2023-04-21T09:55:54;101432.0;;;16.29;65.62
36834;BME280;48003;52.084;5.224;2023-04-21T09:57:37;101431.0;;;16.0;64.69
36834;BME280;48003;52.084;5.224;2023-04-21T09:59:20;101435.0;;;16.2;64.97
36834;BME280;48003;52.084;5.224;2023-04-21T10:02:43;101427.0;;;16.5;65.02
36834;BME280;48003;52.084;5.224;2023-04-21T10:04:21;101428.0;;;16.63;65.24
36834;BME280;48003;52.084;5.224;2023-04-21T10:06:01;101427.0;;;16.66;66.3
36834;BME280;48003;52.084;5.224;2023-04-21T10:07:38;101430.0;;;16.68;65.84
36834;BME280;48003;52.084;5.224;2023-04-21T10:10:59;101436.0;;;16.63;65.97
36834;BME280;48003;52.084;5.224;2023-04-21T10:12:37;101433.0;;;16.61;65.11
36834;BME280;48003;52.084;5.224;2023-04-21T10:14:13;101434.0;;;16.56;66.41
36834;BME280;48003;52.084;5.224;2023-04-21T10:17:38;101442.0;;;16.59;66.22
36834;BME280;48003;52.084;5.224;2023-04-21T10:19:25;101435.0;;;16.62;64.62
36834;BME280;48003;52.084;5.224;2023-04-21T10:21:06;101431.0;;;16.65;64.53
36834;BME280;48003;52.084;5.224;2023-04-21T10:22:56;101432.0;;;16.7;64.66
36834;BME280;48003;52.084;5.224;2023-04-21T10:24:36;101434.0;;;16.75;64.72
36834;BME280;48003;52.084;5.224;2023-04-21T10:27:57;101430.0;;;16.82;64.31
36834;BME280;48003;52.084;5.224;2023-04-21T10:29:36;101424.0;;;16.88;64.99
36834;BME280;48003;52.084;5.224;2023-04-21T10:31:20;101421.0;;;16.79;64.7
36834;BME280;48003;52.084;5.224;2023-04-21T10:33:03;101421.0;;;16.84;63.85
36834;BME280;48003;52.084;5.224;2023-04-21T10:36:23;101418.0;;;16.86;64.6
36834;BME280;48003;52.084;5.224;2023-04-21T10:38:01;101418.0;;;16.93;64.56
36834;BME280;48003;52.084;5.224;2023-04-21T10:39:44;101420.0;;;16.53;64.16
36834;BME280;48003;52.084;5.224;2023-04-21T10:41:35;101423.0;;;16.62;63.32
36834;BME280;48003;52.084;5.224;2023-04-21T10:43:41;101413.0;;;16.75;61.95
36834;BME280;48003;52.084;5.224;2023-04-21T10:45:24;101405.0;;;16.79;61.92
36834;BME280;48003;52.084;5.224;2023-04-21T10:48:51;101410.0;;;16.68;62.37
36834;BME280;48003;52.084;5.224;2023-04-21T10:50:30;101402.0;;;16.77;62.37
36834;BME280;48003;52.084;5.224;2023-04-21T10:52:08;101406.0;;;16.68;62.2
36834;BME280;48003;52.084;5.224;2023-04-21T10:53:46;101407.0;;;16.62;62.37
36834;BME280;48003;52.084;5.224;2023-04-21T10:57:06;101405.0;;;16.62;62.5
36834;BME280;48003;52.084;5.224;2023-04-21T10:58:44;101399.0;;;16.7;63.16
36834;BME280;48003;52.084;5.224;2023-04-21T11:00:24;101389.0;;;16.57;62.83
36834;BME280;48003;52.084;5.224;2023-04-21T11:02:01;101391.0;;;16.81;61.72
36834;BME280;48003;52.084;5.224;2023-04-21T11:05:17;101389.0;;;16.91;61.65
36834;BME280;48003;52.084;5.224;2023-04-21T11:07:05;101385.0;;;17.03;63.08